sensor_id;sensor_type;location;lat;lon;timestamp;P1;durP1;ratioP1;P2;durP2;ratioP2
21444;SDS011;10883;51.946;20.140;2023-05-14T00:01:58;98.65;;;36.80;;
21444;SDS011;10883;51.946;20.140;2023-05-14T00:04:23;95.65;;;36.45;;
21444;SDS011;10883;51.946;20.140;2023-05-14T00:06:50;83.88;;;37.13;;
21444;SDS011;10883;51.946;20.140;2023-05-14T00:09:15;85.07;;;33.85;;
21444;SDS011;10883;51.946;20.140;2023-05-14T00:11:41;90.10;;;35.15;;
21444;SDS011;10883;51.946;20.140;2023-05-14T00:14:07;86.63;;;32.85;;
21444;SDS011;10883;51.946;20.140;2023-05-14T00:16:32;76.72;;;32.90;;
21444;SDS011;10883;51.946;20.140;2023-05-14T00:18:58;77.38;;;32.88;;
21444;SDS011;10883;51.946;20.140;2023-05-14T00:21:24;71.30;;;29.73;;
21444;SDS011;10883;51.946;20.140;2023-05-14T00:23:50;66.30;;;30.17;;
21444;SDS011;10883;51.946;20.140;2023-05-14T00:26:15;68.03;;;29.88;;
21444;SDS011;10883;51.946;20.140;2023-05-14T00:28:41;60.72;;;27.98;;
21444;SDS011;10883;51.946;20.140;2023-05-14T00:31:07;62.95;;;29.77;;
21444;SDS011;10883;51.946;20.140;2023-05-14T00:33:33;64.57;;;28.52;;
21444;SDS011;10883;51.946;20.140;2023-05-14T00:35:59;62.67;;;28.65;;
21444;SDS011;10883;51.946;20.140;2023-05-14T00:38:24;56.17;;;25.63;;
21444;SDS011;10883;51.946;20.140;2023-05-14T00:40:52;55.53;;;25.88;;
21444;SDS011;10883;51.946;20.140;2023-05-14T00:43:18;60.00;;;25.80;;
21444;SDS011;10883;51.946;20.140;2023-05-14T00:45:46;59.88;;;23.83;;
21444;SDS011;10883;51.946;20.140;2023-05-14T00:48:14;52.70;;;23.98;;
21444;SDS011;10883;51.946;20.140;2023-05-14T00:50:40;48.13;;;23.15;;
21444;SDS011;10883;51.946;20.140;2023-05-14T00:53:06;43.72;;;22.63;;
21444;SDS011;10883;51.946;20.140;2023-05-14T00:55:35;42.13;;;21.63;;
21444;SDS011;10883;51.946;20.140;2023-05-14T00:58:03;41.58;;;20.25;;
21444;SDS011;10883;51.946;20.140;2023-05-14T01:00:33;39.00;;;21.25;;
21444;SDS011;10883;51.946;20.140;2023-05-14T01:03:00;37.08;;;19.55;;
21444;SDS011;10883;51.946;20.140;2023-05-14T01:05:34;42.83;;;18.77;;
21444;SDS011;10883;51.946;20.140;2023-05-14T01:08:11;41.13;;;20.10;;
21444;SDS011;10883;51.946;20.140;2023-05-14T01:11:01;35.55;;;18.30;;
21444;SDS011;10883;51.946;20.140;2023-05-14T01:13:37;32.80;;;18.42;;
21444;SDS011;10883;51.946;20.140;2023-05-14T01:16:20;29.60;;;17.40;;
21444;SDS011;10883;51.946;20.140;2023-05-14T01:18:50;31.80;;;16.95;;
21444;SDS011;10883;51.946;20.140;2023-05-14T01:21:32;36.50;;;16.92;;
21444;SDS011;10883;51.946;20.140;2023-05-14T01:24:02;25.83;;;15.65;;
21444;SDS011;10883;51.946;20.140;2023-05-14T01:26:29;32.45;;;17.45;;
21444;SDS011;10883;51.946;20.140;2023-05-14T01:28:57;29.05;;;17.38;;
21444;SDS011;10883;51.946;20.140;2023-05-14T01:31:37;33.20;;;16.13;;
21444;SDS011;10883;51.946;20.140;2023-05-14T01:34:04;32.20;;;16.85;;
21444;SDS011;10883;51.946;20.140;2023-05-14T01:36:33;29.27;;;16.40;;
21444;SDS011;10883;51.946;20.140;2023-05-14T01:38:59;29.60;;;17.08;;
21444;SDS011;10883;51.946;20.140;2023-05-14T01:41:27;29.02;;;16.70;;
21444;SDS011;10883;51.946;20.140;2023-05-14T01:43:55;25.98;;;15.85;;
21444;SDS011;10883;51.946;20.140;2023-05-14T01:46:21;26.45;;;15.73;;
21444;SDS011;10883;51.946;20.140;2023-05-14T01:48:49;26.98;;;16.55;;
21444;SDS011;10883;51.946;20.140;2023-05-14T01:51:15;27.83;;;15.30;;
21444;SDS011;10883;51.946;20.140;2023-05-14T01:53:40;30.23;;;17.38;;
21444;SDS011;10883;51.946;20.140;2023-05-14T01:56:06;27.17;;;16.15;;
21444;SDS011;10883;51.946;20.140;2023-05-14T01:58:32;28.33;;;15.13;;
21444;SDS011;10883;51.946;20.140;2023-05-14T02:00:58;33.28;;;16.35;;
21444;SDS011;10883;51.946;20.140;2023-05-14T02:03:23;26.85;;;16.13;;
21444;SDS011;10883;51.946;20.140;2023-05-14T02:05:49;24.70;;;15.25;;
21444;SDS011;10883;51.946;20.140;2023-05-14T02:08:15;25.33;;;15.20;;
21444;SDS011;10883;51.946;20.140;2023-05-14T02:10:41;26.85;;;15.57;;
21444;SDS011;10883;51.946;20.140;2023-05-14T02:13:06;27.55;;;16.05;;
21444;SDS011;10883;51.946;20.140;2023-05-14T02:15:33;24.83;;;15.32;;
21444;SDS011;10883;51.946;20.140;2023-05-14T02:17:59;23.77;;;14.93;;
21444;SDS011;10883;51.946;20.140;2023-05-14T02:20:25;24.27;;;15.25;;
21444;SDS011;10883;51.946;20.140;2023-05-14T02:22:51;22.00;;;14.45;;
21444;SDS011;10883;51.946;20.140;2023-05-14T02:25:16;28.00;;;15.15;;
21444;SDS011;10883;51.946;20.140;2023-05-14T02:27:43;24.27;;;15.88;;
21444;SDS011;10883;51.946;20.140;2023-05-14T02:30:09;24.20;;;15.95;;
21444;SDS011;10883;51.946;20.140;2023-05-14T02:32:35;23.83;;;15.30;;
21444;SDS011;10883;51.946;20.140;2023-05-14T02:35:01;21.73;;;14.82;;
21444;SDS011;10883;51.946;20.140;2023-05-14T02:37:27;25.73;;;14.68;;
21444;SDS011;10883;51.946;20.140;2023-05-14T02:39:52;26.60;;;14.90;;
21444;SDS011;10883;51.946;20.140;2023-05-14T02:42:18;26.35;;;15.35;;
21444;SDS011;10883;51.946;20.140;2023-05-14T02:44:44;27.40;;;14.95;;
21444;SDS011;10883;51.946;20.140;2023-05-14T02:47:10;28.00;;;15.57;;
21444;SDS011;10883;51.946;20.140;2023-05-14T02:49:36;24.23;;;15.32;;
21444;SDS011;10883;51.946;20.140;2023-05-14T02:52:01;31.25;;;17.00;;
21444;SDS011;10883;51.946;20.140;2023-05-14T02:54:27;31.92;;;18.45;;
21444;SDS011;10883;51.946;20.140;2023-05-14T02:56:53;35.70;;;19.92;;
21444;SDS011;10883;51.946;20.140;2023-05-14T02:59:19;27.90;;;18.83;;
21444;SDS011;10883;51.946;20.140;2023-05-14T03:01:45;27.90;;;16.77;;
21444;SDS011;10883;51.946;20.140;2023-05-14T03:04:11;27.42;;;15.25;;
21444;SDS011;10883;51.946;20.140;2023-05-14T03:06:36;23.27;;;15.05;;
21444;SDS011;10883;51.946;20.140;2023-05-14T03:09:02;24.95;;;15.15;;
21444;SDS011;10883;51.946;20.140;2023-05-14T03:11:28;24.58;;;15.48;;
21444;SDS011;10883;51.946;20.140;2023-05-14T03:13:54;24.25;;;15.10;;
21444;SDS011;10883;51.946;20.140;2023-05-14T03:16:19;26.95;;;15.70;;
21444;SDS011;10883;51.946;20.140;2023-05-14T03:18:45;26.80;;;15.23;;
21444;SDS011;10883;51.946;20.140;2023-05-14T03:21:11;25.13;;;15.43;;
21444;SDS011;10883;51.946;20.140;2023-05-14T03:23:37;30.70;;;17.80;;
21444;SDS011;10883;51.946;20.140;2023-05-14T03:26:02;30.90;;;18.73;;
21444;SDS011;10883;51.946;20.140;2023-05-14T03:28:29;29.08;;;16.25;;
21444;SDS011;10883;51.946;20.140;2023-05-14T03:30:55;26.58;;;15.77;;
21444;SDS011;10883;51.946;20.140;2023-05-14T03:33:21;31.33;;;16.40;;
21444;SDS011;10883;51.946;20.140;2023-05-14T03:35:47;30.88;;;17.25;;
21444;SDS011;10883;51.946;20.140;2023-05-14T03:38:13;27.92;;;17.52;;
21444;SDS011;10883;51.946;20.140;2023-05-14T03:40:39;28.48;;;15.95;;
21444;SDS011;10883;51.946;20.140;2023-05-14T03:43:04;26.25;;;16.88;;
21444;SDS011;10883;51.946;20.140;2023-05-14T03:45:30;33.13;;;20.27;;
21444;SDS011;10883;51.946;20.140;2023-05-14T03:47:57;33.80;;;20.27;;
21444;SDS011;10883;51.946;20.140;2023-05-14T03:50:22;30.77;;;19.63;;
21444;SDS011;10883;51.946;20.140;2023-05-14T03:52:50;33.53;;;19.90;;
21444;SDS011;10883;51.946;20.140;2023-05-14T03:55:17;34.95;;;20.33;;
21444;SDS011;10883;51.946;20.140;2023-05-14T03:57:48;32.70;;;18.98;;
21444;SDS011;10883;51.946;20.140;2023-05-14T04:00:14;29.45;;;18.30;;
21444;SDS011;10883;51.946;20.140;2023-05-14T04:02:40;28.70;;;17.60;;
21444;SDS011;10883;51.946;20.140;2023-05-14T04:05:06;28.85;;;19.23;;
21444;SDS011;10883;51.946;20.140;2023-05-14T04:07:32;29.27;;;18.10;;
21444;SDS011;10883;51.946;20.140;2023-05-14T04:09:58;29.48;;;18.85;;
21444;SDS011;10883;51.946;20.140;2023-05-14T04:12:24;30.10;;;19.00;;
21444;SDS011;10883;51.946;20.140;2023-05-14T04:14:51;33.95;;;20.20;;
21444;SDS011;10883;51.946;20.140;2023-05-14T04:17:17;34.25;;;19.65;;
21444;SDS011;10883;51.946;20.140;2023-05-14T04:19:42;33.70;;;19.77;;
21444;SDS011;10883;51.946;20.140;2023-05-14T04:22:08;24.85;;;15.07;;
21444;SDS011;10883;51.946;20.140;2023-05-14T04:24:34;27.42;;;15.23;;
21444;SDS011;10883;51.946;20.140;2023-05-14T04:27:00;23.20;;;14.35;;
21444;SDS011;10883;51.946;20.140;2023-05-14T04:29:25;22.60;;;14.65;;
21444;SDS011;10883;51.946;20.140;2023-05-14T04:31:51;23.13;;;13.48;;
21444;SDS011;10883;51.946;20.140;2023-05-14T04:34:17;21.33;;;13.13;;
21444;SDS011;10883;51.946;20.140;2023-05-14T04:36:43;24.05;;;14.05;;
21444;SDS011;10883;51.946;20.140;2023-05-14T04:39:09;19.08;;;12.68;;
21444;SDS011;10883;51.946;20.140;2023-05-14T04:41:36;22.55;;;13.43;;
21444;SDS011;10883;51.946;20.140;2023-05-14T04:44:02;21.98;;;13.07;;
21444;SDS011;10883;51.946;20.140;2023-05-14T04:46:28;17.02;;;11.95;;
21444;SDS011;10883;51.946;20.140;2023-05-14T04:48:55;18.38;;;12.25;;
21444;SDS011;10883;51.946;20.140;2023-05-14T04:51:21;20.25;;;11.55;;
21444;SDS011;10883;51.946;20.140;2023-05-14T04:53:47;18.80;;;11.45;;
21444;SDS011;10883;51.946;20.140;2023-05-14T04:56:13;19.38;;;11.95;;
21444;SDS011;10883;51.946;20.140;2023-05-14T04:58:38;20.58;;;11.93;;
21444;SDS011;10883;51.946;20.140;2023-05-14T05:01:05;15.05;;;11.50;;
21444;SDS011;10883;51.946;20.140;2023-05-14T05:03:31;21.13;;;11.88;;
21444;SDS011;10883;51.946;20.140;2023-05-14T05:05:57;18.38;;;10.93;;
21444;SDS011;10883;51.946;20.140;2023-05-14T05:08:23;18.13;;;9.68;;
21444;SDS011;10883;51.946;20.140;2023-05-14T05:10:48;16.63;;;10.23;;
21444;SDS011;10883;51.946;20.140;2023-05-14T05:13:14;15.43;;;10.20;;
21444;SDS011;10883;51.946;20.140;2023-05-14T05:15:41;17.02;;;9.48;;
21444;SDS011;10883;51.946;20.140;2023-05-14T05:18:07;17.98;;;9.68;;
21444;SDS011;10883;51.946;20.140;2023-05-14T05:20:33;13.05;;;10.00;;
21444;SDS011;10883;51.946;20.140;2023-05-14T05:22:59;14.63;;;10.02;;
21444;SDS011;10883;51.946;20.140;2023-05-14T05:25:25;15.52;;;9.25;;
21444;SDS011;10883;51.946;20.140;2023-05-14T05:27:51;12.55;;;8.90;;
21444;SDS011;10883;51.946;20.140;2023-05-14T05:30:17;13.98;;;9.20;;
21444;SDS011;10883;51.946;20.140;2023-05-14T05:32:43;12.13;;;8.23;;
21444;SDS011;10883;51.946;20.140;2023-05-14T05:35:09;11.18;;;8.48;;
21444;SDS011;10883;51.946;20.140;2023-05-14T05:37:35;12.38;;;8.35;;
21444;SDS011;10883;51.946;20.140;2023-05-14T05:40:01;11.70;;;8.43;;
21444;SDS011;10883;51.946;20.140;2023-05-14T05:42:28;14.23;;;8.85;;
21444;SDS011;10883;51.946;20.140;2023-05-14T05:44:54;11.23;;;8.18;;
21444;SDS011;10883;51.946;20.140;2023-05-14T05:47:20;8.85;;;6.95;;
21444;SDS011;10883;51.946;20.140;2023-05-14T05:49:46;6.68;;;4.78;;
21444;SDS011;10883;51.946;20.140;2023-05-14T05:52:11;7.70;;;4.82;;
21444;SDS011;10883;51.946;20.140;2023-05-14T05:54:37;7.68;;;5.07;;
21444;SDS011;10883;51.946;20.140;2023-05-14T05:57:04;6.90;;;4.75;;
21444;SDS011;10883;51.946;20.140;2023-05-14T05:59:30;8.30;;;5.00;;
21444;SDS011;10883;51.946;20.140;2023-05-14T06:01:55;8.57;;;5.22;;
21444;SDS011;10883;51.946;20.140;2023-05-14T06:04:21;8.00;;;6.28;;
21444;SDS011;10883;51.946;20.140;2023-05-14T06:06:47;11.52;;;5.05;;
21444;SDS011;10883;51.946;20.140;2023-05-14T06:09:13;10.13;;;5.80;;
21444;SDS011;10883;51.946;20.140;2023-05-14T06:11:38;9.88;;;5.72;;
21444;SDS011;10883;51.946;20.140;2023-05-14T06:14:04;9.05;;;4.90;;
21444;SDS011;10883;51.946;20.140;2023-05-14T06:16:30;6.15;;;5.10;;
21444;SDS011;10883;51.946;20.140;2023-05-14T06:18:56;9.55;;;5.68;;
21444;SDS011;10883;51.946;20.140;2023-05-14T06:21:21;10.25;;;4.80;;
21444;SDS011;10883;51.946;20.140;2023-05-14T06:23:47;7.55;;;4.80;;
21444;SDS011;10883;51.946;20.140;2023-05-14T06:26:13;5.82;;;4.40;;
21444;SDS011;10883;51.946;20.140;2023-05-14T06:28:39;6.05;;;3.90;;
21444;SDS011;10883;51.946;20.140;2023-05-14T06:31:05;8.00;;;4.00;;
21444;SDS011;10883;51.946;20.140;2023-05-14T06:33:30;8.07;;;4.70;;
21444;SDS011;10883;51.946;20.140;2023-05-14T06:35:59;6.32;;;3.72;;
21444;SDS011;10883;51.946;20.140;2023-05-14T06:38:27;8.27;;;3.80;;
21444;SDS011;10883;51.946;20.140;2023-05-14T06:40:53;6.85;;;3.47;;
21444;SDS011;10883;51.946;20.140;2023-05-14T06:43:19;6.50;;;3.63;;
21444;SDS011;10883;51.946;20.140;2023-05-14T06:45:48;4.18;;;2.75;;
21444;SDS011;10883;51.946;20.140;2023-05-14T06:48:17;6.40;;;3.60;;
21444;SDS011;10883;51.946;20.140;2023-05-14T06:50:44;5.82;;;2.80;;
21444;SDS011;10883;51.946;20.140;2023-05-14T06:53:10;8.88;;;2.95;;
21444;SDS011;10883;51.946;20.140;2023-05-14T06:55:36;5.75;;;2.53;;
21444;SDS011;10883;51.946;20.140;2023-05-14T06:58:02;6.47;;;3.17;;
21444;SDS011;10883;51.946;20.140;2023-05-14T07:00:30;8.30;;;2.65;;
21444;SDS011;10883;51.946;20.140;2023-05-14T07:02:56;4.38;;;2.17;;
21444;SDS011;10883;51.946;20.140;2023-05-14T07:05:21;5.07;;;2.80;;
21444;SDS011;10883;51.946;20.140;2023-05-14T07:07:48;8.25;;;2.92;;
21444;SDS011;10883;51.946;20.140;2023-05-14T07:10:14;6.60;;;3.08;;
21444;SDS011;10883;51.946;20.140;2023-05-14T07:12:40;8.23;;;2.90;;
21444;SDS011;10883;51.946;20.140;2023-05-14T07:15:05;4.50;;;3.47;;
21444;SDS011;10883;51.946;20.140;2023-05-14T07:17:32;4.07;;;3.05;;
21444;SDS011;10883;51.946;20.140;2023-05-14T07:19:58;9.60;;;3.00;;
21444;SDS011;10883;51.946;20.140;2023-05-14T07:22:23;3.20;;;2.65;;
21444;SDS011;10883;51.946;20.140;2023-05-14T07:24:49;5.00;;;2.88;;
21444;SDS011;10883;51.946;20.140;2023-05-14T07:27:15;5.65;;;2.92;;
21444;SDS011;10883;51.946;20.140;2023-05-14T07:29:41;8.10;;;3.33;;
21444;SDS011;10883;51.946;20.140;2023-05-14T07:32:07;8.73;;;2.88;;
21444;SDS011;10883;51.946;20.140;2023-05-14T07:34:33;6.30;;;3.08;;
21444;SDS011;10883;51.946;20.140;2023-05-14T07:36:59;5.28;;;3.08;;
21444;SDS011;10883;51.946;20.140;2023-05-14T07:39:25;4.80;;;3.08;;
21444;SDS011;10883;51.946;20.140;2023-05-14T07:41:51;3.85;;;2.90;;
21444;SDS011;10883;51.946;20.140;2023-05-14T07:44:19;3.80;;;2.47;;
21444;SDS011;10883;51.946;20.140;2023-05-14T07:46:45;5.22;;;2.85;;
21444;SDS011;10883;51.946;20.140;2023-05-14T07:49:14;5.20;;;2.92;;
21444;SDS011;10883;51.946;20.140;2023-05-14T07:51:40;8.70;;;3.05;;
21444;SDS011;10883;51.946;20.140;2023-05-14T07:54:06;8.05;;;3.08;;
21444;SDS011;10883;51.946;20.140;2023-05-14T07:56:32;4.72;;;2.33;;
21444;SDS011;10883;51.946;20.140;2023-05-14T07:58:58;6.45;;;2.47;;
21444;SDS011;10883;51.946;20.140;2023-05-14T08:01:24;3.13;;;2.55;;
21444;SDS011;10883;51.946;20.140;2023-05-14T08:03:50;3.55;;;2.30;;
21444;SDS011;10883;51.946;20.140;2023-05-14T08:06:16;4.93;;;3.22;;
21444;SDS011;10883;51.946;20.140;2023-05-14T08:08:42;5.32;;;3.13;;
21444;SDS011;10883;51.946;20.140;2023-05-14T08:11:08;5.13;;;2.67;;
21444;SDS011;10883;51.946;20.140;2023-05-14T08:13:34;3.00;;;2.70;;
21444;SDS011;10883;51.946;20.140;2023-05-14T08:16:00;6.50;;;3.35;;
21444;SDS011;10883;51.946;20.140;2023-05-14T08:18:26;5.60;;;2.70;;
21444;SDS011;10883;51.946;20.140;2023-05-14T08:20:51;6.93;;;2.53;;
21444;SDS011;10883;51.946;20.140;2023-05-14T08:23:17;5.45;;;2.97;;
21444;SDS011;10883;51.946;20.140;2023-05-14T08:25:43;4.75;;;2.70;;
21444;SDS011;10883;51.946;20.140;2023-05-14T08:28:09;5.70;;;3.53;;
21444;SDS011;10883;51.946;20.140;2023-05-14T08:30:35;5.28;;;3.28;;
21444;SDS011;10883;51.946;20.140;2023-05-14T08:33:01;8.38;;;3.72;;
21444;SDS011;10883;51.946;20.140;2023-05-14T08:35:27;9.45;;;3.90;;
21444;SDS011;10883;51.946;20.140;2023-05-14T08:37:53;5.50;;;3.13;;
21444;SDS011;10883;51.946;20.140;2023-05-14T08:40:20;6.50;;;3.33;;
21444;SDS011;10883;51.946;20.140;2023-05-14T08:42:47;10.23;;;3.63;;
21444;SDS011;10883;51.946;20.140;2023-05-14T08:45:17;6.80;;;3.33;;
21444;SDS011;10883;51.946;20.140;2023-05-14T08:47:49;4.22;;;2.75;;
21444;SDS011;10883;51.946;20.140;2023-05-14T08:50:15;6.35;;;2.80;;
21444;SDS011;10883;51.946;20.140;2023-05-14T08:52:44;6.10;;;3.20;;
21444;SDS011;10883;51.946;20.140;2023-05-14T08:55:10;3.63;;;2.88;;
21444;SDS011;10883;51.946;20.140;2023-05-14T08:57:37;5.57;;;3.00;;
21444;SDS011;10883;51.946;20.140;2023-05-14T09:00:04;7.35;;;3.22;;
21444;SDS011;10883;51.946;20.140;2023-05-14T09:02:35;7.38;;;3.00;;
21444;SDS011;10883;51.946;20.140;2023-05-14T09:05:03;6.80;;;3.00;;
21444;SDS011;10883;51.946;20.140;2023-05-14T09:07:31;5.38;;;2.95;;
21444;SDS011;10883;51.946;20.140;2023-05-14T09:09:58;3.78;;;2.67;;
21444;SDS011;10883;51.946;20.140;2023-05-14T09:12:23;6.22;;;2.78;;
21444;SDS011;10883;51.946;20.140;2023-05-14T09:14:49;7.82;;;2.40;;
21444;SDS011;10883;51.946;20.140;2023-05-14T09:17:16;8.38;;;3.28;;
21444;SDS011;10883;51.946;20.140;2023-05-14T09:19:42;6.75;;;2.88;;
21444;SDS011;10883;51.946;20.140;2023-05-14T09:22:09;7.40;;;3.10;;
21444;SDS011;10883;51.946;20.140;2023-05-14T09:24:37;6.70;;;2.58;;
21444;SDS011;10883;51.946;20.140;2023-05-14T09:27:03;4.93;;;2.55;;
21444;SDS011;10883;51.946;20.140;2023-05-14T09:29:30;6.32;;;2.60;;
21444;SDS011;10883;51.946;20.140;2023-05-14T09:31:56;3.85;;;2.42;;
21444;SDS011;10883;51.946;20.140;2023-05-14T09:34:24;4.97;;;2.00;;
21444;SDS011;10883;51.946;20.140;2023-05-14T09:36:58;6.55;;;2.63;;
21444;SDS011;10883;51.946;20.140;2023-05-14T09:39:28;6.50;;;2.33;;
21444;SDS011;10883;51.946;20.140;2023-05-14T09:41:54;7.63;;;3.22;;
21444;SDS011;10883;51.946;20.140;2023-05-14T09:44:21;5.95;;;2.30;;
21444;SDS011;10883;51.946;20.140;2023-05-14T09:46:48;4.93;;;2.17;;
21444;SDS011;10883;51.946;20.140;2023-05-14T09:49:14;4.43;;;2.65;;
21444;SDS011;10883;51.946;20.140;2023-05-14T09:51:40;6.63;;;2.33;;
21444;SDS011;10883;51.946;20.140;2023-05-14T09:54:07;4.93;;;2.70;;
21444;SDS011;10883;51.946;20.140;2023-05-14T09:56:33;4.20;;;2.10;;
21444;SDS011;10883;51.946;20.140;2023-05-14T09:59:00;6.07;;;2.55;;
21444;SDS011;10883;51.946;20.140;2023-05-14T10:01:30;7.53;;;2.35;;
21444;SDS011;10883;51.946;20.140;2023-05-14T10:03:57;5.22;;;2.47;;
21444;SDS011;10883;51.946;20.140;2023-05-14T10:06:30;7.95;;;2.50;;
21444;SDS011;10883;51.946;20.140;2023-05-14T10:09:01;7.55;;;3.55;;
21444;SDS011;10883;51.946;20.140;2023-05-14T10:11:32;4.60;;;2.70;;
21444;SDS011;10883;51.946;20.140;2023-05-14T10:14:07;5.28;;;2.22;;
21444;SDS011;10883;51.946;20.140;2023-05-14T10:16:51;9.75;;;2.67;;
21444;SDS011;10883;51.946;20.140;2023-05-14T10:19:19;3.42;;;2.20;;
21444;SDS011;10883;51.946;20.140;2023-05-14T10:21:50;4.75;;;2.55;;
21444;SDS011;10883;51.946;20.140;2023-05-14T10:24:20;4.05;;;2.90;;
21444;SDS011;10883;51.946;20.140;2023-05-14T10:26:46;4.50;;;2.25;;
21444;SDS011;10883;51.946;20.140;2023-05-14T10:29:13;3.85;;;2.83;;
21444;SDS011;10883;51.946;20.140;2023-05-14T10:31:50;5.35;;;2.30;;
21444;SDS011;10883;51.946;20.140;2023-05-14T10:37:09;8.40;;;2.65;;
21444;SDS011;10883;51.946;20.140;2023-05-14T10:39:46;6.45;;;2.67;;
21444;SDS011;10883;51.946;20.140;2023-05-14T10:42:22;5.57;;;2.40;;
21444;SDS011;10883;51.946;20.140;2023-05-14T10:44:53;4.40;;;2.10;;
21444;SDS011;10883;51.946;20.140;2023-05-14T10:47:22;3.00;;;1.90;;
21444;SDS011;10883;51.946;20.140;2023-05-14T10:49:51;10.15;;;2.42;;
21444;SDS011;10883;51.946;20.140;2023-05-14T10:52:19;5.10;;;2.22;;
21444;SDS011;10883;51.946;20.140;2023-05-14T10:54:53;2.83;;;1.70;;
21444;SDS011;10883;51.946;20.140;2023-05-14T10:57:23;7.88;;;2.45;;
21444;SDS011;10883;51.946;20.140;2023-05-14T10:59:52;7.20;;;2.75;;
21444;SDS011;10883;51.946;20.140;2023-05-14T11:07:24;3.90;;;1.92;;
21444;SDS011;10883;51.946;20.140;2023-05-14T11:09:52;3.42;;;2.00;;
21444;SDS011;10883;51.946;20.140;2023-05-14T11:12:23;4.68;;;2.33;;
21444;SDS011;10883;51.946;20.140;2023-05-14T11:14:50;7.38;;;2.45;;
21444;SDS011;10883;51.946;20.140;2023-05-14T11:17:15;2.75;;;2.50;;
21444;SDS011;10883;51.946;20.140;2023-05-14T11:19:42;4.78;;;1.88;;
21444;SDS011;10883;51.946;20.140;2023-05-14T11:22:11;2.40;;;1.70;;
21444;SDS011;10883;51.946;20.140;2023-05-14T11:24:40;2.83;;;2.00;;
21444;SDS011;10883;51.946;20.140;2023-05-14T11:27:06;3.85;;;2.00;;
21444;SDS011;10883;51.946;20.140;2023-05-14T11:29:36;3.33;;;2.10;;
21444;SDS011;10883;51.946;20.140;2023-05-14T11:32:05;3.53;;;2.20;;
21444;SDS011;10883;51.946;20.140;2023-05-14T11:34:31;2.58;;;1.90;;
21444;SDS011;10883;51.946;20.140;2023-05-14T11:37:06;8.10;;;2.50;;
21444;SDS011;10883;51.946;20.140;2023-05-14T11:39:33;5.20;;;2.03;;
21444;SDS011;10883;51.946;20.140;2023-05-14T11:42:03;4.32;;;2.00;;
21444;SDS011;10883;51.946;20.140;2023-05-14T11:44:33;5.78;;;2.28;;
21444;SDS011;10883;51.946;20.140;2023-05-14T11:46:59;5.78;;;2.10;;
21444;SDS011;10883;51.946;20.140;2023-05-14T11:49:29;6.45;;;2.53;;
21444;SDS011;10883;51.946;20.140;2023-05-14T11:51:56;5.95;;;1.75;;
21444;SDS011;10883;51.946;20.140;2023-05-14T11:54:24;3.78;;;2.17;;
21444;SDS011;10883;51.946;20.140;2023-05-14T11:56:51;5.38;;;2.58;;
21444;SDS011;10883;51.946;20.140;2023-05-14T11:59:20;25.55;;;4.63;;
21444;SDS011;10883;51.946;20.140;2023-05-14T12:01:52;4.32;;;2.25;;
21444;SDS011;10883;51.946;20.140;2023-05-14T12:04:25;6.30;;;2.95;;
21444;SDS011;10883;51.946;20.140;2023-05-14T12:06:56;3.45;;;2.50;;
21444;SDS011;10883;51.946;20.140;2023-05-14T12:09:34;5.38;;;2.35;;
21444;SDS011;10883;51.946;20.140;2023-05-14T12:12:17;3.55;;;2.03;;
21444;SDS011;10883;51.946;20.140;2023-05-14T12:14:45;7.70;;;2.33;;
21444;SDS011;10883;51.946;20.140;2023-05-14T12:17:20;4.32;;;2.00;;
21444;SDS011;10883;51.946;20.140;2023-05-14T12:19:48;3.25;;;2.33;;
21444;SDS011;10883;51.946;20.140;2023-05-14T12:22:20;5.32;;;2.67;;
21444;SDS011;10883;51.946;20.140;2023-05-14T12:24:53;6.45;;;2.28;;
21444;SDS011;10883;51.946;20.140;2023-05-14T12:27:24;3.05;;;2.55;;
21444;SDS011;10883;51.946;20.140;2023-05-14T12:30:00;9.32;;;2.38;;
21444;SDS011;10883;51.946;20.140;2023-05-14T12:32:29;4.07;;;2.33;;
21444;SDS011;10883;51.946;20.140;2023-05-14T12:34:56;3.55;;;2.50;;
21444;SDS011;10883;51.946;20.140;2023-05-14T12:37:22;5.55;;;2.60;;
21444;SDS011;10883;51.946;20.140;2023-05-14T12:39:48;4.43;;;2.30;;
21444;SDS011;10883;51.946;20.140;2023-05-14T12:42:14;4.15;;;2.47;;
21444;SDS011;10883;51.946;20.140;2023-05-14T12:44:40;5.20;;;2.40;;
21444;SDS011;10883;51.946;20.140;2023-05-14T12:47:06;3.92;;;1.75;;
21444;SDS011;10883;51.946;20.140;2023-05-14T12:49:34;3.90;;;2.28;;
21444;SDS011;10883;51.946;20.140;2023-05-14T12:52:07;4.95;;;2.40;;
21444;SDS011;10883;51.946;20.140;2023-05-14T12:54:35;6.03;;;2.33;;
21444;SDS011;10883;51.946;20.140;2023-05-14T12:57:10;7.97;;;2.65;;
21444;SDS011;10883;51.946;20.140;2023-05-14T12:59:40;3.40;;;2.08;;
21444;SDS011;10883;51.946;20.140;2023-05-14T13:02:06;4.20;;;2.42;;
21444;SDS011;10883;51.946;20.140;2023-05-14T13:04:32;3.90;;;2.22;;
21444;SDS011;10883;51.946;20.140;2023-05-14T13:06:57;6.65;;;1.95;;
21444;SDS011;10883;51.946;20.140;2023-05-14T13:09:23;6.97;;;2.25;;
21444;SDS011;10883;51.946;20.140;2023-05-14T13:11:51;4.72;;;2.00;;
21444;SDS011;10883;51.946;20.140;2023-05-14T13:14:17;3.60;;;1.85;;
21444;SDS011;10883;51.946;20.140;2023-05-14T13:16:43;5.97;;;2.20;;
21444;SDS011;10883;51.946;20.140;2023-05-14T13:19:09;4.28;;;2.30;;
21444;SDS011;10883;51.946;20.140;2023-05-14T13:21:35;2.95;;;2.33;;
21444;SDS011;10883;51.946;20.140;2023-05-14T13:24:01;5.22;;;1.90;;
21444;SDS011;10883;51.946;20.140;2023-05-14T13:26:27;6.20;;;2.35;;
21444;SDS011;10883;51.946;20.140;2023-05-14T13:28:52;6.10;;;2.13;;
21444;SDS011;10883;51.946;20.140;2023-05-14T13:31:18;4.32;;;1.73;;
21444;SDS011;10883;51.946;20.140;2023-05-14T13:33:44;2.38;;;1.70;;
21444;SDS011;10883;51.946;20.140;2023-05-14T13:36:12;5.68;;;2.50;;
21444;SDS011;10883;51.946;20.140;2023-05-14T13:38:38;2.42;;;1.83;;
21444;SDS011;10883;51.946;20.140;2023-05-14T13:41:04;5.75;;;2.30;;
21444;SDS011;10883;51.946;20.140;2023-05-14T13:43:30;4.85;;;2.15;;
21444;SDS011;10883;51.946;20.140;2023-05-14T13:45:57;3.58;;;1.90;;
21444;SDS011;10883;51.946;20.140;2023-05-14T13:48:24;3.13;;;1.83;;
21444;SDS011;10883;51.946;20.140;2023-05-14T13:50:50;4.13;;;2.13;;
21444;SDS011;10883;51.946;20.140;2023-05-14T13:53:17;5.53;;;2.10;;
21444;SDS011;10883;51.946;20.140;2023-05-14T13:55:47;2.95;;;1.92;;
21444;SDS011;10883;51.946;20.140;2023-05-14T13:58:13;3.22;;;2.10;;
21444;SDS011;10883;51.946;20.140;2023-05-14T14:00:39;5.80;;;2.70;;
21444;SDS011;10883;51.946;20.140;2023-05-14T14:03:05;4.68;;;2.53;;
21444;SDS011;10883;51.946;20.140;2023-05-14T14:05:32;2.50;;;2.05;;
21444;SDS011;10883;51.946;20.140;2023-05-14T14:07:59;4.40;;;2.00;;
21444;SDS011;10883;51.946;20.140;2023-05-14T14:10:24;4.70;;;2.08;;
21444;SDS011;10883;51.946;20.140;2023-05-14T14:12:50;2.65;;;2.42;;
21444;SDS011;10883;51.946;20.140;2023-05-14T14:15:16;2.85;;;1.73;;
21444;SDS011;10883;51.946;20.140;2023-05-14T14:17:42;4.28;;;1.85;;
21444;SDS011;10883;51.946;20.140;2023-05-14T14:20:08;5.90;;;2.28;;
21444;SDS011;10883;51.946;20.140;2023-05-14T14:22:34;4.47;;;2.30;;
21444;SDS011;10883;51.946;20.140;2023-05-14T14:25:00;3.25;;;2.17;;
21444;SDS011;10883;51.946;20.140;2023-05-14T14:27:26;4.97;;;2.30;;
21444;SDS011;10883;51.946;20.140;2023-05-14T14:29:55;6.43;;;2.13;;
21444;SDS011;10883;51.946;20.140;2023-05-14T14:32:20;4.00;;;2.00;;